Donnes mto: samedi, 30/08/2008
Date Horaire Temp. Ext. Press. atmo. Pluie P. de rose Temp au vent
30/08/2008 00:00 20,4 C 1014 mbar 0,0 mm 12,6 C 20,4 C
30/08/2008 00:15 20,1 C 1014 mbar 0,0 mm 12,6 C 20,1 C
30/08/2008 00:30 19,8 C 1014 mbar 0,0 mm 12,5 C 19,8 C
30/08/2008 00:45 19,4 C 1014 mbar 0,0 mm 12,4 C 19,4 C
30/08/2008 01:00 19,1 C 1014 mbar 0,0 mm 12,4 C 19,1 C
30/08/2008 01:15 18,8 C 1014 mbar 0,0 mm 12,3 C 18,8 C
30/08/2008 01:30 18,5 C 1014 mbar 0,0 mm 12,5 C 18,5 C
30/08/2008 01:45 18,3 C 1014 mbar 0,0 mm 12,5 C 18,3 C
30/08/2008 02:00 18,1 C 1014 mbar 0,0 mm 12,5 C 18,1 C
30/08/2008 02:15 17,8 C 1014 mbar 0,0 mm 12,5 C 17,8 C
30/08/2008 02:30 17,5 C 1014 mbar 0,0 mm 12,4 C 17,5 C
30/08/2008 02:45 17,2 C 1014 mbar 0,0 mm 12,5 C 17,2 C
30/08/2008 03:00 17,1 C 1014 mbar 0,0 mm 12,6 C 17,1 C
30/08/2008 03:15 16,8 C 1014 mbar 0,0 mm 12,3 C 16,8 C
30/08/2008 03:30 16,7 C 1013 mbar 0,0 mm 12,4 C 16,7 C
30/08/2008 03:45 16,5 C 1013 mbar 0,0 mm 12,5 C 16,5 C
30/08/2008 04:00 16,4 C 1013 mbar 0,0 mm 12,7 C 16,4 C
30/08/2008 04:15 16,2 C 1013 mbar 0,0 mm 12,7 C 16,2 C
30/08/2008 04:30 16,1 C 1013 mbar 0,0 mm 12,6 C 16,1 C
30/08/2008 04:45 15,9 C 1013 mbar 0,0 mm 12,6 C 15,9 C
30/08/2008 05:00 15,8 C 1013 mbar 0,0 mm 12,5 C 15,8 C
30/08/2008 05:15 15,7 C 1013 mbar 0,0 mm 12,4 C 15,7 C
30/08/2008 05:30 15,5 C 1013 mbar 0,0 mm 12,4 C 15,5 C
30/08/2008 05:45 15,2 C 1013 mbar 0,0 mm 12,3 C 15,2 C
30/08/2008 06:00 15,2 C 1012 mbar 0,0 mm 12,5 C 15,2 C
30/08/2008 06:15 15,1 C 1012 mbar 0,0 mm 12,6 C 15,1 C
30/08/2008 06:30 15,1 C 1012 mbar 0,0 mm 12,6 C 15,1 C
30/08/2008 06:45 15,1 C 1012 mbar 0,0 mm 12,8 C 15,1 C
30/08/2008 07:00 14,8 C 1012 mbar 0,0 mm 12,5 C 14,8 C
30/08/2008 07:15 14,8 C 1012 mbar 0,0 mm 12,5 C 14,8 C
30/08/2008 07:30 14,8 C 1012 mbar 0,0 mm 12,5 C 14,8 C
30/08/2008 07:45 15,0 C 1012 mbar 0,0 mm 12,9 C 15,0 C
30/08/2008 08:00 16,2 C 1012 mbar 0,0 mm 13,9 C 16,2 C
30/08/2008 08:15 17,2 C 1012 mbar 0,0 mm 14,1 C 17,2 C
30/08/2008 08:30 18,0 C 1012 mbar 0,0 mm 14,1 C 18,0 C
30/08/2008 08:45 18,4 C 1012 mbar 0,0 mm 13,9 C 18,4 C
30/08/2008 09:00 19,1 C 1012 mbar 0,0 mm 14,1 C 19,1 C
30/08/2008 09:15 20,0 C 1012 mbar 0,0 mm 14,4 C 20,0 C
30/08/2008 09:30 20,8 C 1012 mbar 0,0 mm 14,2 C 20,8 C
30/08/2008 09:45 21,0 C 1012 mbar 0,0 mm 13,9 C 21,0 C
30/08/2008 10:00 21,0 C 1012 mbar 0,0 mm 13,9 C 21,0 C
30/08/2008 10:15 21,3 C 1012 mbar 0,0 mm 14,4 C 21,3 C
30/08/2008 10:30 21,8 C 1012 mbar 0,0 mm 14,4 C 21,8 C
30/08/2008 10:45 22,2 C 1012 mbar 0,0 mm 14,3 C 22,2 C
30/08/2008 11:00 22,5 C 1012 mbar 0,0 mm 14,1 C 22,5 C
30/08/2008 11:15 23,5 C 1012 mbar 0,0 mm 14,7 C 23,5 C
30/08/2008 11:30 24,3 C 1012 mbar 0,0 mm 14,7 C 24,3 C
30/08/2008 11:45 25,1 C 1012 mbar 0,0 mm 14,2 C 25,1 C
30/08/2008 12:00 25,8 C 1012 mbar 0,0 mm 14,3 C 25,8 C
30/08/2008 12:15 26,8 C 1012 mbar 0,0 mm 14,2 C 26,8 C
30/08/2008 12:30 27,7 C 1012 mbar 0,0 mm 14,3 C 27,7 C
30/08/2008 12:45 28,1 C 1012 mbar 0,0 mm 14,3 C 28,1 C
30/08/2008 13:00 28,5 C 1012 mbar 0,0 mm 13,9 C 28,5 C
30/08/2008 13:15 29,2 C 1012 mbar 0,0 mm 13,8 C 29,2 C
30/08/2008 13:30 29,9 C 1012 mbar 0,0 mm 14,0 C 29,9 C
30/08/2008 13:45 30,5 C 1012 mbar 0,0 mm 14,1 C 30,5 C
30/08/2008 14:00 31,1 C 1012 mbar 0,0 mm 13,8 C 31,1 C
30/08/2008 14:15 31,5 C 1011 mbar 0,0 mm 13,2 C 31,5 C
30/08/2008 14:30 31,9 C 1011 mbar 0,0 mm 13,1 C 31,9 C
30/08/2008 14:45 31,8 C 1011 mbar 0,0 mm 12,1 C 31,8 C
30/08/2008 15:00 32,6 C 1011 mbar 0,0 mm 12,2 C 32,6 C
30/08/2008 15:15 32,8 C 1011 mbar 0,0 mm 11,9 C 32,8 C
30/08/2008 15:30 33,5 C 1011 mbar 0,0 mm 12,5 C 33,5 C
30/08/2008 15:45 33,6 C 1011 mbar 0,0 mm 12,0 C 33,6 C
30/08/2008 16:00 33,7 C 1011 mbar 0,0 mm 11,5 C 33,7 C
30/08/2008 16:15 33,2 C 1011 mbar 0,0 mm 10,5 C 33,2 C
30/08/2008 16:30 33,5 C 1010 mbar 0,0 mm 11,3 C 33,5 C
30/08/2008 16:45 33,5 C 1010 mbar 0,0 mm 10,1 C 33,5 C
30/08/2008 17:00 33,5 C 1010 mbar 0,0 mm 9,5 C 33,5 C
30/08/2008 17:15 33,9 C 1010 mbar 0,0 mm 9,2 C 33,9 C
30/08/2008 17:30 33,8 C 1010 mbar 0,0 mm 8,4 C 33,8 C
30/08/2008 17:45 33,7 C 1010 mbar 0,0 mm 9,0 C 33,7 C
30/08/2008 18:00 33,8 C 1010 mbar 0,0 mm 8,4 C 33,8 C
30/08/2008 18:15 33,6 C 1010 mbar 0,0 mm 8,9 C 33,6 C
30/08/2008 18:30 32,8 C 1010 mbar 0,0 mm 8,9 C 32,8 C
30/08/2008 18:45 32,5 C 1010 mbar 0,0 mm 8,7 C 32,5 C
30/08/2008 19:00 32,2 C 1010 mbar 0,0 mm 9,0 C 32,2 C
30/08/2008 19:15 31,7 C 1010 mbar 0,0 mm 9,8 C 31,7 C
30/08/2008 19:30 31,2 C 1010 mbar 0,0 mm 10,5 C 31,2 C
30/08/2008 19:45 30,8 C 1010 mbar 0,0 mm 10,7 C 30,8 C
30/08/2008 20:00 30,5 C 1010 mbar 0,0 mm 10,9 C 30,5 C
30/08/2008 20:15 28,9 C 1010 mbar 0,0 mm 12,3 C 28,9 C
30/08/2008 20:30 28,0 C 1010 mbar 0,0 mm 11,9 C 28,0 C
30/08/2008 20:45 27,1 C 1010 mbar 0,0 mm 11,1 C 27,1 C
30/08/2008 21:00 26,1 C 1010 mbar 0,0 mm 11,0 C 26,1 C
30/08/2008 21:15 25,7 C 1010 mbar 0,0 mm 10,7 C 25,7 C
30/08/2008 21:30 25,3 C 1010 mbar 0,0 mm 12,2 C 25,3 C
30/08/2008 21:45 24,8 C 1010 mbar 0,0 mm 12,7 C 24,8 C
30/08/2008 22:00 24,2 C 1010 mbar 0,0 mm 12,8 C 24,2 C
30/08/2008 22:15 23,6 C 1010 mbar 0,0 mm 12,6 C 23,6 C
30/08/2008 22:30 23,4 C 1010 mbar 0,0 mm 13,0 C 23,4 C
30/08/2008 22:45 23,1 C 1010 mbar 0,0 mm 13,0 C 23,1 C
30/08/2008 23:00 22,7 C 1010 mbar 0,0 mm 12,9 C 22,7 C
30/08/2008 23:15 22,3 C 1010 mbar 0,0 mm 13,6 C 22,3 C
30/08/2008 23:30 22,1 C 1010 mbar 0,0 mm 13,7 C 22,1 C
30/08/2008 23:45 21,9 C 1010 mbar 0,0 mm 13,8 C 21,9 C
_ Min-Heure 07:00 16:30 - 17:30 07:00
Minimum _ 14,8 C 1010 mbar - 8,4 C 14,8 C
_ Max-Heure 17:15 00:00 00:00 11:15 17:15
Maximum _ 33,9 C 1014 mbar 0,0 mm 14,7 C 33,9 C
Moyenne _ 23,8 C 1012 mbar #0,0 mm 12,4 C 23,8 C